Time;durP1;ratioP1;P1;durP2;ratioP2;P2;SDS_P1;SDS_P2;PMS_P1;PMS_P2;Temp;Humidity;BMP_temperature;BMP_pressure;BME280_temperature;BME280_humidity;BME280_pressure;Samples;Min_cycle;Max_cycle;Signal;HPM_P1;HPM_P2
2021/04/11 00:01:35;;;;;;;10.00;6.03;;;;;;;10.14;100.00;97373.78;4996193;28;20236;-78
2021/04/11 00:04:01;;;;;;;8.93;6.13;;;;;;;10.01;100.00;97368.69;4994991;28;20270;-78
2021/04/11 00:06:27;;;;;;;10.93;6.63;;;;;;;9.78;100.00;97376.69;4977141;28;20224;-78
2021/04/11 00:08:53;;;;;;;11.07;6.67;;;;;;;9.99;100.00;97374.56;4993910;28;20649;-79
2021/04/11 00:11:21;;;;;;;8.63;6.77;;;;;;;9.54;100.00;97376.81;4993479;28;20247;-80
2021/04/11 00:13:51;;;;;;;11.17;6.43;;;;;;;9.74;100.00;97378.56;4993533;28;20246;-79
2021/04/11 00:16:17;;;;;;;10.27;6.40;;;;;;;10.10;100.00;97366.59;4994278;28;20208;-79
2021/04/11 00:18:43;;;;;;;7.27;6.47;;;;;;;10.12;100.00;97375.31;4984698;28;20228;-79
2021/04/11 00:21:10;;;;;;;11.10;6.90;;;;;;;10.04;100.00;97367.97;4993534;28;20783;-79
2021/04/11 00:23:36;;;;;;;8.50;5.97;;;;;;;10.08;100.00;97371.63;4993312;28;20270;-79
2021/04/11 00:26:04;;;;;;;8.33;6.37;;;;;;;10.18;100.00;97369.19;4990229;28;20911;-78
2021/04/11 00:28:30;;;;;;;11.67;6.70;;;;;;;10.03;100.00;97367.19;4990561;28;20235;-78
2021/04/11 00:30:57;;;;;;;17.97;6.73;;;;;;;9.94;100.00;97366.53;4993296;28;20650;-78
2021/04/11 00:33:29;;;;;;;10.73;6.90;;;;;;;9.83;100.00;97362.69;4992056;28;20245;-76
2021/04/11 00:36:02;;;;;;;11.87;6.13;;;;;;;9.83;100.00;97361.88;4991849;28;20239;-78
2021/04/11 00:38:29;;;;;;;14.17;6.53;;;;;;;9.78;100.00;97360.16;4991367;28;20298;-78
2021/04/11 00:40:59;;;;;;;12.63;7.07;;;;;;;9.80;100.00;97357.06;4991488;28;20243;-77
2021/04/11 00:43:27;;;;;;;9.47;6.63;;;;;;;9.79;100.00;97356.28;4988913;28;20295;-76
2021/04/11 00:46:06;;;;;;;13.00;7.60;;;;;;;9.80;100.00;97357.06;4990460;28;20732;-80
2021/04/11 00:48:33;;;;;;;9.97;6.80;;;;;;;9.80;100.00;97354.31;4990702;28;20235;-79
2021/04/11 00:51:06;;;;;;;11.10;7.23;;;;;;;9.71;100.00;97353.66;4991054;28;20289;-78
2021/04/11 00:53:33;;;;;;;12.33;7.13;;;;;;;9.64;100.00;97348.75;4990255;28;20236;-79
2021/04/11 00:56:00;;;;;;;11.10;6.87;;;;;;;9.72;100.00;97345.06;4991860;28;20228;-78
2021/04/11 00:58:27;;;;;;;11.83;7.07;;;;;;;9.76;100.00;97340.44;4992032;28;20312;-79
2021/04/11 01:34:22;;;;;;;10.30;6.70;;;;;;;9.44;100.00;97343.44;5107696;27;20492;-78
2021/04/11 01:36:50;;;;;;;10.67;6.17;;;;;;;9.29;100.00;97347.72;5108147;28;20210;-78
2021/04/11 01:39:20;;;;;;;8.33;6.17;;;;;;;9.37;100.00;97344.03;5110024;28;20230;-78
2021/04/11 01:41:47;;;;;;;8.77;6.17;;;;;;;9.50;100.00;97334.59;5108868;28;20624;-79
2021/04/11 01:44:21;;;;;;;8.73;5.70;;;;;;;9.55;100.00;97337.09;5108463;28;20276;-78
2021/04/11 01:46:48;;;;;;;11.07;6.37;;;;;;;9.50;100.00;97331.03;5106936;28;20290;-78
2021/04/11 01:49:16;;;;;;;11.93;5.93;;;;;;;9.45;100.00;97334.81;5107573;28;20227;-78
2021/04/11 01:51:47;;;;;;;7.93;5.83;;;;;;;9.52;100.00;97334.22;5107659;28;20687;-78
2021/04/11 01:54:18;;;;;;;8.63;5.90;;;;;;;9.55;100.00;97328.81;5108081;28;20318;-77
2021/04/11 01:56:45;;;;;;;10.47;6.00;;;;;;;9.48;100.00;97328.63;5107776;28;20207;-78
2021/04/11 01:59:14;;;;;;;7.30;5.20;;;;;;;9.48;100.00;97328.63;5107165;28;20255;-78
2021/04/11 02:01:41;;;;;;;9.70;6.50;;;;;;;9.45;100.00;97326.56;5106939;28;20299;-78
2021/04/11 02:04:07;;;;;;;10.57;6.00;;;;;;;9.33;100.00;97325.78;5107261;28;20291;-78
2021/04/11 02:06:36;;;;;;;11.40;5.67;;;;;;;9.20;100.00;97331.34;5105736;28;20231;-77
2021/04/11 02:09:33;;;;;;;10.77;5.90;;;;;;;9.17;100.00;97329.31;5105340;28;20224;-78
2021/04/11 02:12:00;;;;;;;11.43;6.20;;;;;;;9.12;100.00;97332.28;5097947;28;20228;-77
2021/04/11 02:14:27;;;;;;;9.97;6.20;;;;;;;9.24;100.00;97334.19;5106453;28;20200;-77
2021/04/11 02:16:57;;;;;;;13.17;6.67;;;;;;;9.24;100.00;97325.94;5106610;28;20299;-77
2021/04/11 02:19:27;;;;;;;9.27;6.57;;;;;;;9.23;100.00;97329.88;5106094;28;20622;-76
2021/04/11 02:22:18;;;;;;;9.70;6.30;;;;;;;9.10;100.00;97317.28;5108671;28;20228;-76
2021/04/11 02:24:46;;;;;;;8.10;6.13;;;;;;;9.17;100.00;97323.00;5101385;28;20269;-76
2021/04/11 02:27:15;;;;;;;8.07;5.73;;;;;;;9.18;100.00;97319.88;5107592;28;20216;-76
2021/04/11 02:29:45;;;;;;;9.37;6.63;;;;;;;9.19;100.00;97315.19;5106898;28;20722;-77
2021/04/11 02:32:11;;;;;;;10.13;6.17;;;;;;;9.26;100.00;97307.13;5106321;28;20642;-77
2021/04/11 02:34:37;;;;;;;11.03;6.40;;;;;;;9.26;100.00;97311.81;5088143;28;20568;-77
2021/04/11 02:37:14;;;;;;;14.13;6.67;;;;;;;9.22;100.00;97314.47;5106494;28;20207;-76
2021/04/11 02:39:42;;;;;;;9.70;6.30;;;;;;;9.14;100.00;97313.47;5104604;28;20259;-76
2021/04/11 02:42:15;;;;;;;8.47;6.17;;;;;;;9.04;100.00;97310.41;5105081;28;20196;-76
2021/04/11 02:44:43;;;;;;;10.43;6.00;;;;;;;9.02;100.00;97307.19;5097481;28;20208;-76
2021/04/11 02:47:12;;;;;;;8.63;6.33;;;;;;;8.96;100.00;97308.56;5092799;28;20257;-76
2021/04/11 02:49:39;;;;;;;7.73;5.93;;;;;;;8.94;100.00;97308.16;5090982;28;20272;-76
2021/04/11 02:52:12;;;;;;;8.33;5.60;;;;;;;8.94;100.00;97308.16;5092469;28;20236;-77
2021/04/11 02:54:38;;;;;;;8.33;5.70;;;;;;;8.94;100.00;97306.16;5092590;28;20215;-77
2021/04/11 02:57:06;;;;;;;8.17;5.57;;;;;;;8.86;100.00;97309.88;5091536;28;20322;-77
2021/04/11 02:59:32;;;;;;;8.10;6.10;;;;;;;8.94;100.00;97305.38;5075643;28;20252;-78
2021/04/11 03:01:58;;;;;;;8.80;6.00;;;;;;;8.83;100.00;97301.50;5101521;28;20709;-78
2021/04/11 03:04:26;;;;;;;7.87;5.73;;;;;;;8.88;100.00;97299.31;5095969;28;20211;-79
2021/04/11 03:06:59;;;;;;;10.47;6.80;;;;;;;8.94;100.00;97302.63;5094950;28;20208;-77
2021/04/11 03:09:31;;;;;;;8.87;6.07;;;;;;;8.86;100.00;97292.56;5092060;28;20404;-78
2021/04/11 03:11:57;;;;;;;8.00;5.83;;;;;;;8.91;100.00;97306.06;5092471;28;20236;-78
2021/04/11 03:14:29;;;;;;;10.53;6.20;;;;;;;8.93;100.00;97307.34;5092148;28;20264;-77
2021/04/11 03:16:55;;;;;;;8.17;6.27;;;;;;;8.94;100.00;97302.63;5092365;28;20255;-77
2021/04/11 03:19:28;;;;;;;9.67;5.83;;;;;;;8.91;100.00;97292.31;5091954;28;20308;-78
2021/04/11 03:21:54;;;;;;;9.60;5.97;;;;;;;8.88;100.00;97295.75;5092705;28;20756;-78
2021/04/11 03:24:20;;;;;;;7.40;5.77;;;;;;;8.90;100.00;97293.47;5092513;28;20228;-78
2021/04/11 03:26:54;;;;;;;9.67;6.20;;;;;;;8.72;100.00;97290.16;5092655;28;20235;-78
2021/04/11 03:29:27;;;;;;;13.27;6.70;;;;;;;8.92;100.00;97291.19;5090856;28;20303;-77
2021/04/11 03:32:04;;;;;;;9.23;5.90;;;;;;;8.92;100.00;97286.44;5090830;28;20208;-78
2021/04/11 03:34:32;;;;;;;7.90;6.20;;;;;;;8.84;100.00;97287.41;5092143;28;20200;-78
2021/04/11 03:37:02;;;;;;;12.90;5.77;;;;;;;8.82;100.00;97283.38;5093280;28;20239;-78
2021/04/11 03:39:32;;;;;;;8.47;5.30;;;;;;;8.82;100.00;97288.88;5092192;28;20758;-77
2021/04/11 03:41:58;;;;;;;8.40;5.60;;;;;;;8.91;100.00;97286.81;5092203;28;20189;-78
2021/04/11 03:44:25;;;;;;;10.87;6.40;;;;;;;8.95;100.00;97287.72;5091460;28;20208;-77
2021/04/11 03:46:57;;;;;;;9.13;6.07;;;;;;;8.95;100.00;97287.72;5092616;28;20257;-77
2021/04/11 03:49:29;;;;;;;10.03;5.70;;;;;;;8.98;100.00;97289.75;5089897;28;20224;-77
2021/04/11 03:51:59;;;;;;;7.30;5.57;;;;;;;8.93;100.00;97284.50;5090432;28;20288;-77
2021/04/11 03:54:35;;;;;;;8.80;5.60;;;;;;;8.82;100.00;97286.13;5090546;28;20252;-77
2021/04/11 03:57:17;;;;;;;8.17;5.90;;;;;;;8.70;100.00;97280.66;5089393;28;20573;-77
2021/04/11 03:59:49;;;;;;;9.67;5.73;;;;;;;8.60;100.00;97286.63;5091045;28;20224;-78
2021/04/11 04:02:17;;;;;;;5.67;4.97;;;;;;;8.65;100.00;97283.66;5091191;28;20675;-77
2021/04/11 04:04:45;;;;;;;11.00;5.33;;;;;;;8.61;100.00;97280.00;5091069;28;20257;-77
2021/04/11 04:07:15;;;;;;;9.27;5.57;;;;;;;8.68;100.00;97274.72;5091654;28;20629;-78
2021/04/11 04:09:43;;;;;;;7.30;5.60;;;;;;;8.66;100.00;97275.06;5093503;28;20225;-78
2021/04/11 04:12:17;;;;;;;7.37;4.90;;;;;;;8.67;100.00;97271.16;5073728;28;20210;-78
2021/04/11 04:15:18;;;;;;;7.17;5.50;;;;;;;8.71;100.00;97268.50;5092402;28;20247;-78
2021/04/11 04:17:59;;;;;;;10.83;5.70;;;;;;;8.67;100.00;97264.84;5083493;28;20287;-78
2021/04/11 04:20:52;;;;;;;7.40;5.37;;;;;;;8.78;100.00;97271.47;5091076;28;20228;-77
2021/04/11 04:23:33;;;;;;;8.53;5.73;;;;;;;8.72;100.00;97262.66;5090934;28;20744;-79
2021/04/11 04:26:15;;;;;;;7.93;5.67;;;;;;;8.79;100.00;97273.09;5084548;28;20287;-78
2021/04/11 04:28:50;;;;;;;8.17;5.37;;;;;;;8.76;100.00;97276.50;5090746;28;20220;-77
2021/04/11 04:31:31;;;;;;;6.40;5.43;;;;;;;8.80;100.00;97274.66;5091180;28;20204;-77
2021/04/11 04:34:04;;;;;;;9.67;5.50;;;;;;;8.84;100.00;97281.09;5084046;28;20277;-77
2021/04/11 04:36:48;;;;;;;8.07;5.40;;;;;;;8.90;100.00;97279.72;5090446;28;20289;-77
2021/04/11 04:39:33;;;;;;;9.77;5.83;;;;;;;8.88;100.00;97282.81;5090934;28;20657;-77
2021/04/11 04:42:13;;;;;;;10.13;5.90;;;;;;;8.96;100.00;97286.56;5090603;28;20379;-77
2021/04/11 04:44:54;;;;;;;9.03;5.73;;;;;;;8.98;100.00;97287.00;5090201;28;20855;-77
2021/04/11 04:47:44;;;;;;;8.57;5.73;;;;;;;9.14;100.00;97285.94;5090301;28;20288;-76
2021/04/11 04:50:28;;;;;;;8.27;5.73;;;;;;;9.28;100.00;97293.81;5090162;28;20642;-77
2021/04/11 04:53:04;;;;;;;9.03;5.23;;;;;;;9.43;100.00;97286.78;5087886;28;20219;-79
2021/04/11 04:55:34;;;;;;;11.30;5.50;;;;;;;9.41;100.00;97287.13;5094100;28;20315;-79
2021/04/11 04:58:06;;;;;;;6.83;5.43;;;;;;;9.71;100.00;97288.34;5093334;28;20236;-79
2021/04/11 05:00:38;;;;;;;11.93;5.73;;;;;;;10.10;100.00;97289.41;5091553;28;20205;-78
2021/04/11 05:03:09;;;;;;;8.07;5.70;;;;;;;11.04;100.00;97284.56;5091975;28;20573;-78
2021/04/11 05:05:42;;;;;;;8.57;6.07;;;;;;;10.74;100.00;97286.25;5090866;28;20219;-78
2021/04/11 05:08:23;;;;;;;10.43;5.80;;;;;;;10.05;100.00;97298.69;5091916;28;20250;-79
2021/04/11 05:11:17;;;;;;;10.67;6.00;;;;;;;12.71;100.00;97295.69;5083409;28;20617;-78
2021/04/11 05:13:49;;;;;;;10.83;6.27;;;;;;;13.93;100.00;97279.94;5087977;28;20323;-77
2021/04/11 05:16:24;;;;;;;11.73;6.03;;;;;;;13.66;100.00;97277.63;5112241;28;20189;-77
2021/04/11 05:18:59;;;;;;;9.93;5.50;;;;;;;13.85;100.00;97283.78;5103567;28;20212;-77
2021/04/11 05:21:33;;;;;;;10.23;5.80;;;;;;;12.13;100.00;97289.56;5102900;28;20223;-78
2021/04/11 05:24:08;;;;;;;12.20;5.87;;;;;;;11.90;100.00;97294.25;5092954;28;20262;-77
2021/04/11 05:27:03;;;;;;;10.63;5.70;;;;;;;11.46;100.00;97290.22;5090510;28;20208;-77
2021/04/11 05:29:38;;;;;;;10.77;6.27;;;;;;;11.93;100.00;97294.31;5091890;28;20229;-77
2021/04/11 05:32:04;;;;;;;9.80;6.50;;;;;;;12.61;100.00;97296.31;5092259;28;20237;-76
2021/04/11 05:34:31;;;;;;;9.47;6.30;;;;;;;14.09;100.00;97280.50;5092167;28;20296;-77
2021/04/11 05:37:19;;;;;;;10.50;6.20;;;;;;;13.27;100.00;97291.00;5091144;28;20228;-76
2021/04/11 05:40:01;;;;;;;11.53;5.70;;;;;;;15.87;100.00;97287.72;5084067;28;20239;-77
2021/04/11 05:42:36;;;;;;;9.40;6.33;;;;;;;16.92;100.00;97289.06;5091752;28;20205;-77
2021/04/11 05:45:20;;;;;;;10.87;6.20;;;;;;;17.36;100.00;97292.19;5093698;28;20208;-77
2021/04/11 05:48:05;;;;;;;9.33;6.13;;;;;;;16.91;100.00;97295.84;5085569;28;20211;-77
2021/04/11 05:50:43;;;;;;;7.80;5.37;;;;;;;18.17;100.00;97289.88;5092375;28;20232;-77
2021/04/11 05:53:19;;;;;;;8.50;6.00;;;;;;;18.79;100.00;97280.72;5093531;28;20258;-77
2021/04/11 05:55:53;;;;;;;7.47;5.63;;;;;;;19.40;100.00;97281.75;5083269;28;20236;-77
2021/04/11 05:58:23;;;;;;;11.43;5.75;;;;;;;17.24;100.00;97287.06;5089765;28;20209;-77
2021/04/11 06:01:02;;;;;;;6.60;5.43;;;;;;;17.55;100.00;97286.19;5072401;28;20291;-76
2021/04/11 06:03:29;;;;;;;9.23;5.60;;;;;;;17.38;100.00;97286.19;5086999;28;20207;-77
2021/04/11 06:06:20;;;;;;;8.80;5.80;;;;;;;15.32;100.00;97288.22;5092535;28;20232;-77
2021/04/11 06:09:05;;;;;;;10.07;6.25;;;;;;;13.39;100.00;97301.88;5091434;28;20592;-79
2021/04/11 06:11:49;;;;;;;8.57;5.75;;;;;;;12.52;100.00;97310.41;5092004;28;20209;-76
2021/04/11 06:14:31;;;;;;;6.77;5.63;;;;;;;11.91;100.00;97304.97;5090922;28;20244;-79
2021/04/11 06:16:58;;;;;;;9.40;5.87;;;;;;;12.01;100.00;97312.66;5084982;28;20200;-78
2021/04/11 06:19:25;;;;;;;7.97;6.00;;;;;;;15.24;100.00;97301.28;5091432;28;20293;-77
2021/04/11 06:22:02;;;;;;;9.93;6.10;;;;;;;16.85;100.00;97294.66;5094385;28;20205;-78
2021/04/11 06:25:06;;;;;;;8.20;5.97;;;;;;;18.21;100.00;97296.25;5095763;28;20645;-75
2021/04/11 06:28:03;;;;;;;9.00;5.97;;;;;;;17.71;100.00;97288.53;5052612;28;20205;-77
2021/04/11 06:30:34;;;;;;;6.47;5.57;;;;;;;17.29;100.00;97295.00;5092664;28;20731;-77
2021/04/11 06:33:12;;;;;;;10.40;6.30;;;;;;;16.27;100.00;97299.75;5092953;28;20224;-78
2021/04/11 06:35:46;;;;;;;9.93;5.38;;;;;;;15.07;100.00;97291.66;5092270;28;20212;-78
2021/04/11 06:38:20;;;;;;;8.25;5.50;;;;;;;17.67;100.00;97282.97;5090286;28;20299;-75
2021/04/11 06:41:00;;;;;;;9.52;5.85;;;;;;;19.29;100.00;97283.84;5089517;28;20295;-75
2021/04/11 06:43:36;;;;;;;14.77;5.78;;;;;;;17.85;100.00;97289.25;5089887;28;20246;-77
2021/04/11 06:46:33;;;;;;;8.63;5.25;;;;;;;18.91;100.00;97271.81;5092584;28;20228;-76
2021/04/11 06:49:18;;;;;;;6.97;5.18;;;;;;;18.43;100.00;97273.81;5090424;28;20635;-74
2021/04/11 06:51:52;;;;;;;9.48;5.50;;;;;;;17.44;100.00;97279.03;5090880;28;20752;-75
2021/04/11 06:55:09;;;;;;;8.25;5.53;;;;;;;16.62;100.00;97275.56;5092558;28;20220;-75
2021/04/11 06:57:44;;;;;;;5.65;4.95;;;;;;;16.83;100.00;97277.53;5064476;28;20205;-75
2021/04/11 07:00:40;;;;;;;8.90;5.57;;;;;;;17.33;100.00;97272.69;5068121;28;20312;-74
2021/04/11 07:03:50;;;;;;;10.52;5.40;;;;;;;16.80;100.00;97275.56;5083570;28;20342;-74
2021/04/11 07:06:36;;;;;;;6.57;5.35;;;;;;;16.91;100.00;97279.13;5090252;28;20209;-75
2021/04/11 07:09:31;;;;;;;9.18;5.05;;;;;;;16.62;100.00;97266.41;5090331;28;20247;-74
2021/04/11 07:12:31;;;;;;;7.22;5.50;;;;;;;17.04;100.00;97274.75;5092544;28;20288;-76
2021/04/11 07:15:34;;;;;;;6.45;5.00;;;;;;;17.11;100.00;97274.72;5092258;28;20235;-75
2021/04/11 07:18:10;;;;;;;8.43;5.22;;;;;;;18.72;100.00;97264.00;5085302;28;20227;-74
2021/04/11 07:21:09;;;;;;;6.00;5.00;;;;;;;20.58;100.00;97263.81;5091950;28;20817;-75
2021/04/11 07:24:06;;;;;;;8.80;5.10;;;;;;;20.80;100.00;97267.88;5091973;28;20296;-75
2021/04/11 07:27:10;;;;;;;10.48;4.80;;;;;;;18.47;100.00;97266.97;5078588;28;20327;-72
2021/04/11 07:29:59;;;;;;;6.38;4.75;;;;;;;18.20;100.00;97275.13;5085217;28;20254;-71
2021/04/11 07:32:47;;;;;;;7.60;5.03;;;;;;;19.25;100.00;97281.06;5086710;28;20208;-72
2021/04/11 07:35:13;;;;;;;10.18;5.47;;;;;;;18.92;100.00;97273.41;5085622;28;20727;-74
2021/04/11 07:37:42;;;;;;;7.03;4.90;;;;;;;20.72;100.00;97274.81;5085899;28;20211;-77
2021/04/11 07:40:36;;;;;;;7.25;4.85;;;;;;;22.17;100.00;97275.75;5083101;28;20939;-77
2021/04/11 07:43:16;;;;;;;7.80;4.93;;;;;;;20.74;100.00;97270.38;5082822;28;20263;-77
2021/04/11 07:46:12;;;;;;;6.95;4.75;;;;;;;21.12;97.77;97268.94;5084895;28;20235;-75
2021/04/11 07:48:53;;;;;;;8.63;5.20;;;;;;;21.77;100.00;97264.47;5084974;28;20270;-75
2021/04/11 07:51:46;;;;;;;8.85;4.55;;;;;;;21.97;91.19;97258.88;5086751;28;20226;-74
2021/04/11 07:54:28;;;;;;;9.73;4.78;;;;;;;21.48;98.52;97260.66;5085785;28;20292;-76
2021/04/11 07:57:18;;;;;;;8.55;5.07;;;;;;;22.01;87.21;97263.22;5086478;28;20254;-78
2021/04/11 07:59:51;;;;;;;9.48;4.50;;;;;;;21.58;98.76;97259.66;5085253;28;20742;-76
2021/04/11 08:02:19;;;;;;;6.13;4.72;;;;;;;21.42;88.89;97265.19;5078541;28;20204;-71
2021/04/11 08:05:03;;;;;;;9.90;4.88;;;;;;;21.42;87.76;97259.59;5086711;28;20224;-72
2021/04/11 08:07:42;;;;;;;6.38;4.45;;;;;;;20.02;94.43;97260.59;5078771;28;20660;-72
2021/04/11 08:10:22;;;;;;;5.40;3.83;;;;;;;20.90;85.25;97264.09;5084708;28;20228;-73
2021/04/11 08:13:00;;;;;;;6.28;4.80;;;;;;;20.86;97.51;97254.94;5083770;28;20196;-74
2021/04/11 08:15:35;;;;;;;7.28;4.50;;;;;;;22.85;81.08;97252.03;5086601;28;20212;-69
2021/04/11 08:18:26;;;;;;;6.50;4.40;;;;;;;23.14;72.52;97250.09;5084119;28;20235;-73
2021/04/11 08:21:08;;;;;;;5.40;4.10;;;;;;;22.99;76.17;97250.91;5085717;28;20205;-71
2021/04/11 08:24:02;;;;;;;7.90;4.10;;;;;;;24.01;67.20;97248.13;5083530;28;20248;-71
2021/04/11 08:26:59;;;;;;;8.73;4.45;;;;;;;24.23;66.19;97242.66;5079669;28;20287;-71
2021/04/11 08:29:53;;;;;;;7.00;4.55;;;;;;;23.14;65.33;97249.28;5085322;28;20217;-70
2021/04/11 08:32:44;;;;;;;8.27;4.60;;;;;;;21.77;77.08;97253.25;5085445;28;20234;-70
2021/04/11 08:35:38;;;;;;;8.93;4.47;;;;;;;22.14;85.56;97255.69;5086425;28;20204;-70
2021/04/11 08:38:35;;;;;;;5.28;4.15;;;;;;;21.65;73.66;97253.09;5084468;28;20280;-71
2021/04/11 08:41:07;;;;;;;6.13;4.45;;;;;;;22.62;67.31;97262.69;5085250;28;20287;-71
2021/04/11 08:43:38;;;;;;;6.18;4.60;;;;;;;23.40;68.02;97250.25;5085372;28;20315;-70
2021/04/11 08:46:19;;;;;;;9.73;4.50;;;;;;;22.06;71.38;97257.06;5084249;28;20966;-71
2021/04/11 08:49:04;;;;;;;9.85;4.93;;;;;;;21.83;75.92;97257.19;5083743;28;20255;-71
2021/04/11 08:51:42;;;;;;;8.98;4.70;;;;;;;20.56;81.89;97253.03;5085663;28;20208;-71
2021/04/11 08:54:25;;;;;;;10.07;4.90;;;;;;;19.75;91.87;97268.16;5085703;28;20218;-70
2021/04/11 08:57:08;;;;;;;8.45;4.88;;;;;;;18.77;100.00;97267.16;5084210;28;20205;-71
2021/04/11 09:00:02;;;;;;;8.45;4.63;;;;;;;18.41;100.00;97260.22;5084284;28;20266;-69
2021/04/11 09:02:53;;;;;;;8.45;5.00;;;;;;;18.19;100.00;97259.53;5076250;28;20292;-73
2021/04/11 09:05:32;;;;;;;9.13;5.07;;;;;;;18.72;100.00;97272.38;5077633;28;20196;-70
2021/04/11 09:08:16;;;;;;;6.60;5.18;;;;;;;18.63;100.00;97266.47;5084748;28;21139;-74
2021/04/11 09:11:21;;;;;;;9.15;5.47;;;;;;;17.40;100.00;97278.22;5084870;28;20197;-73
2021/04/11 09:14:25;;;;;;;7.05;5.53;;;;;;;17.71;100.00;97267.00;5068165;28;20215;-73
2021/04/11 09:17:19;;;;;;;10.77;5.88;;;;;;;18.53;100.00;97272.94;5062908;28;20261;-75
2021/04/11 09:19:51;;;;;;;7.25;4.75;;;;;;;18.13;100.00;97266.78;5083400;28;20252;-77
2021/04/11 09:22:36;;;;;;;10.30;6.00;;;;;;;18.83;100.00;97267.50;5075928;28;20204;-77
2021/04/11 09:25:35;;;;;;;8.13;5.60;;;;;;;18.13;100.00;97271.56;5084693;28;20928;-75
2021/04/11 09:28:26;;;;;;;7.30;5.80;;;;;;;19.18;100.00;97269.94;5062420;28;20248;-77
2021/04/11 09:31:18;;;;;;;7.00;5.20;;;;;;;20.90;100.00;97264.09;5075401;28;20665;-75
2021/04/11 09:34:21;;;;;;;6.50;5.63;;;;;;;20.98;100.00;97259.97;5065221;28;20716;-75
2021/04/11 09:37:14;;;;;;;10.20;6.32;;;;;;;22.07;94.58;97255.88;5073428;28;20259;-75
2021/04/11 09:40:11;;;;;;;7.10;5.45;;;;;;;22.96;83.21;97248.97;5079926;28;20328;-75
2021/04/11 09:43:08;;;;;;;9.98;5.88;;;;;;;22.93;79.44;97247.03;5074977;28;20291;-75
2021/04/11 09:46:15;;;;;;;7.90;5.95;;;;;;;21.68;82.45;97266.28;5085432;28;20292;-75
2021/04/11 09:48:56;;;;;;;6.45;5.03;;;;;;;22.58;86.25;97247.91;5083943;28;20240;-75
2021/04/11 09:51:40;;;;;;;7.68;5.50;;;;;;;23.69;70.16;97245.41;5085355;28;20235;-73
2021/04/11 09:54:18;;;;;;;7.90;5.00;;;;;;;24.03;69.57;97237.22;5084904;28;20234;-73
2021/04/11 09:57:25;;;;;;;8.18;5.05;;;;;;;23.30;78.64;97229.59;5084848;28;21057;-72
2021/04/11 09:59:51;;;;;;;10.30;5.20;;;;;;;22.12;86.43;97229.25;5065017;28;20260;-73
2021/04/11 10:02:26;;;;;;;7.80;5.53;;;;;;;21.03;90.09;97242.66;5082130;28;20248;-73
2021/04/11 10:05:16;;;;;;;10.85;5.30;;;;;;;21.65;88.53;97228.63;5086302;28;20243;-74
2021/04/11 10:08:03;;;;;;;8.90;6.18;;;;;;;22.41;86.67;97224.56;5068821;28;20209;-74
2021/04/11 10:10:44;;;;;;;10.55;5.47;;;;;;;20.02;99.36;97224.19;5086007;28;20232;-74
2021/04/11 10:13:30;;;;;;;9.32;5.63;;;;;;;21.37;97.11;97220.75;5084813;28;20234;-74
2021/04/11 10:16:06;;;;;;;8.52;6.05;;;;;;;21.98;92.26;97212.72;5083574;28;20240;-74
2021/04/11 10:18:51;;;;;;;8.25;5.32;;;;;;;21.76;94.31;97209.53;5086432;28;20311;-74
2021/04/11 10:21:24;;;;;;;11.68;5.70;;;;;;;20.94;93.30;97211.53;5088283;28;20236;-72
2021/04/11 10:24:08;;;;;;;7.03;5.30;;;;;;;21.27;98.34;97213.34;5082627;28;20249;-70
2021/04/11 10:26:52;;;;;;;9.38;6.05;;;;;;;21.11;97.63;97216.06;5079666;28;20280;-73
2021/04/11 10:29:22;;;;;;;12.75;6.63;;;;;;;21.79;85.59;97205.09;5086149;28;20281;-72
2021/04/11 10:31:59;;;;;;;9.43;5.70;;;;;;;22.33;90.74;97195.03;5085051;28;20285;-79
2021/04/11 10:34:39;;;;;;;8.88;6.20;;;;;;;21.93;81.38;97204.78;5088947;28;21024;-77
2021/04/11 10:37:41;;;;;;;9.52;6.45;;;;;;;20.62;88.54;97208.50;5091017;28;20772;-76
2021/04/11 10:40:19;;;;;;;8.40;5.65;;;;;;;19.85;96.97;97208.41;5094604;28;20216;-80
2021/04/11 10:42:58;;;;;;;10.80;6.07;;;;;;;19.63;100.00;97207.13;5101485;28;20691;-81
2021/04/11 10:45:58;;;;;;;11.23;6.28;;;;;;;18.96;100.00;97207.84;5099080;28;20216;-82
2021/04/11 10:48:49;;;;;;;10.57;6.30;;;;;;;19.16;100.00;97208.84;5076615;28;20221;-79
2021/04/11 10:51:50;;;;;;;7.60;5.60;;;;;;;19.62;96.63;97210.31;5084101;28;20234;-79
2021/04/11 10:54:28;;;;;;;6.78;5.65;;;;;;;20.41;89.59;97206.03;5085874;28;20651;-79
2021/04/11 10:57:18;;;;;;;8.85;5.95;;;;;;;21.09;78.29;97210.09;5089944;28;20304;-79
2021/04/11 11:00:21;;;;;;;10.02;5.20;;;;;;;21.40;76.65;97208.69;5070184;28;20784;-81
2021/04/11 11:02:56;;;;;;;8.10;5.05;;;;;;;20.59;78.53;97198.09;5083064;28;20212;-80
2021/04/11 11:05:59;;;;;;;9.82;5.95;;;;;;;20.84;82.09;97202.06;5090254;28;20226;-82
2021/04/11 11:08:28;;;;;;;8.48;5.45;;;;;;;21.24;82.41;97200.16;5090182;28;20311;-80
2021/04/11 11:11:23;;;;;;;8.65;5.10;;;;;;;21.03;79.81;97192.94;5092852;28;20680;-79
2021/04/11 11:14:26;;;;;;;9.07;5.65;;;;;;;20.87;84.60;97192.03;5098669;28;20201;-81
2021/04/11 11:17:25;;;;;;;9.13;5.38;;;;;;;21.03;82.70;97187.34;5107965;28;20329;-83
2021/04/11 11:19:57;;;;;;;7.13;5.45;;;;;;;21.15;84.46;97188.69;5094546;28;20232;-81
2021/04/11 11:22:48;;;;;;;11.75;5.85;;;;;;;21.11;89.16;97174.75;5089030;28;20692;-79
2021/04/11 11:25:42;;;;;;;10.80;5.82;;;;;;;20.58;80.57;97180.50;5087011;28;20271;-78
2021/04/11 11:28:36;;;;;;;6.90;5.60;;;;;;;20.46;81.92;97180.31;5086861;28;20218;-79
2021/04/11 11:31:08;;;;;;;11.23;5.65;;;;;;;21.15;78.83;97174.69;5086258;28;20504;-79
2021/04/11 11:33:44;;;;;;;8.30;5.60;;;;;;;21.53;81.57;97175.91;5087542;28;20996;-76
2021/04/11 11:36:22;;;;;;;9.13;5.70;;;;;;;20.23;86.26;97175.47;5089412;28;20239;-78
2021/04/11 11:38:59;;;;;;;7.45;5.28;;;;;;;20.71;82.20;97163.88;5088245;28;20781;-77
2021/04/11 11:41:41;;;;;;;13.00;6.07;;;;;;;21.07;77.62;97167.63;5086784;28;20231;-77
2021/04/11 11:44:22;;;;;;;7.90;5.82;;;;;;;21.24;74.82;97160.88;5080846;28;20764;-77
2021/04/11 11:46:54;;;;;;;12.90;5.47;;;;;;;21.13;78.09;97165.88;5087225;28;20192;-77
2021/04/11 11:49:43;;;;;;;6.72;5.43;;;;;;;21.06;78.29;97157.63;5085598;28;20231;-73
2021/04/11 11:52:33;;;;;;;6.80;4.65;;;;;;;21.67;80.53;97158.78;5090314;28;20203;-74
2021/04/11 11:55:12;;;;;;;6.05;4.97;;;;;;;21.27;78.30;97162.03;5084339;28;20429;-72
2021/04/11 11:57:46;;;;;;;6.68;4.40;;;;;;;20.51;68.24;97168.63;5088474;28;20299;-73
2021/04/11 12:00:21;;;;;;;6.32;3.78;;;;;;;20.95;68.18;97169.00;5082222;28;20700;-73
2021/04/11 12:03:08;;;;;;;7.60;4.18;;;;;;;21.49;65.82;97158.38;5077789;28;20201;-70
2021/04/11 12:05:49;;;;;;;9.55;4.43;;;;;;;21.42;63.35;97169.75;5069314;28;20245;-70
2021/04/11 12:08:50;;;;;;;5.97;4.75;;;;;;;20.87;75.88;97144.34;5079192;28;20222;-71
2021/04/11 12:11:34;;;;;;;8.07;4.70;;;;;;;20.80;66.45;97158.50;5088702;28;20236;-70
2021/04/11 12:14:19;;;;;;;7.75;4.57;;;;;;;20.69;72.42;97155.84;5087291;28;20196;-70
2021/04/11 12:16:49;;;;;;;5.18;4.00;;;;;;;20.28;72.75;97143.38;5086759;28;20232;-69
2021/04/11 12:19:19;;;;;;;6.65;4.80;;;;;;;20.60;73.82;97146.44;5087888;28;20290;-71
2021/04/11 12:21:53;;;;;;;5.78;4.35;;;;;;;20.50;74.45;97153.00;5086938;28;20204;-71
2021/04/11 12:24:24;;;;;;;7.57;4.97;;;;;;;21.04;69.88;97143.22;5087917;28;20315;-71
2021/04/11 12:26:56;;;;;;;6.82;4.38;;;;;;;21.18;68.46;97137.34;5108468;28;20290;-72
2021/04/11 12:29:27;;;;;;;7.47;4.22;;;;;;;21.27;66.25;97142.38;5106672;28;20759;-71
2021/04/11 12:31:59;;;;;;;7.10;4.53;;;;;;;21.14;65.85;97147.84;5108057;28;20239;-71
2021/04/11 12:34:57;;;;;;;7.78;4.53;;;;;;;20.55;71.95;97144.91;5107698;28;20203;-71
2021/04/11 12:37:55;;;;;;;5.45;4.25;;;;;;;20.57;72.22;97141.66;5090237;28;20207;-72
2021/04/11 12:40:38;;;;;;;17.83;4.15;;;;;;;20.54;70.92;97143.34;5097830;28;20385;-73
2021/04/11 12:43:12;;;;;;;7.32;4.05;;;;;;;20.77;68.75;97142.50;5105281;28;20286;-76
2021/04/11 12:45:46;;;;;;;12.00;4.22;;;;;;;20.93;71.58;97142.59;5104883;27;20671;-73
2021/04/11 12:48:47;;;;;;;8.70;4.18;;;;;;;20.78;65.92;97136.47;5115231;27;20273;-74
2021/04/11 12:51:32;;;;;;;5.22;4.00;;;;;;;21.02;70.93;97126.06;5115387;27;20200;-73
2021/04/11 12:54:02;;;;;;;7.47;3.92;;;;;;;21.37;67.69;97122.50;5106652;28;20227;-76
2021/04/11 12:56:31;;;;;;;6.00;4.35;;;;;;;21.62;67.83;97119.19;5094298;27;20227;-75
2021/04/11 12:59:03;;;;;;;7.53;4.20;;;;;;;21.52;71.72;97134.22;5109191;27;20872;-75